Original METAR for CYPQ:
072100Z 20009KT 170V240 9SM CLR 29/24 A2997 RMK SLP150 DENSITY ALT 2400FT

Wind: 200° at 9 knots
Visibility: 170V240 9 statute miles
Sky conditions: Clear
Temperature: 84.2°F
Dew Point: 75.2°F
Altimeter: 29.97

Remarks:
-- Sea level pressure: 1,015.0 millibars.

NOTE:
This METAR was retrieved from metars.com at:
http://www.metars.com/stations/CYPQ.html


Cessnas2Oshkosh, C2O, CessnaBaseCamp and The Pirep | Testimonials | Donations | FAQ | Privacy | Contact Us
are trademarks of Cessnas 2 Oshkosh, Inc. - Dothan, AL Copyright © 2008 - 2022 Cessnas 2 Oshkosh, Inc. All rights reserved.